Station Historical Data
Daily Summary for January 20, 2012 Units:  English    Metric   Both
« Previous Day
Next Day »
Daily Weekly Monthly Yearly Custom
  High: Low: Average:
Temperature: 62.4 °F 45.8 °F 54.1 °F
Dew Point: 61.0 °F 38.2 °F 50.2 °F
Humidity: 95% 64% 87%
Wind Speed: 13.0mph 0.0mph 4.3mph
Wind Gust: 16.0mph - -
Wind- - ESE
Pressure: 30.01 in 29.82 in -
Precipitation: 0.01 in    
Historical Graphs
 
 
Tabular Data for January 20, 2012
Time Temperature Dew Point Pressure Wind Wind Speed Wind Gust Humidity Rainfall Rate (Hourly) Conditions
00:00 49.7 °F 40.3 °F 30.00 in East 1.0 mph 2.0 mph 70% 0.00 in
00:01 49.7 °F 40.3 °F 30.00 in East 1.0 mph 2.0 mph 70% 0.00 in
00:06 49.5 °F 39.4 °F 30.00 in East 2.0 mph 2.0 mph 68% 0.00 in
00:11 49.6 °F 39.5 °F 30.00 in ESE 4.0 mph 4.0 mph 68% 0.00 in
00:16 49.7 °F 39.2 °F 30.00 in ESE 4.0 mph 4.0 mph 67% 0.00 in
00:21 49.9 °F 39.0 °F 30.00 in ESE 1.0 mph 3.0 mph 66% 0.00 in
00:26 50.0 °F 39.1 °F 30.00 in ESE 1.0 mph 2.0 mph 66% 0.00 in
00:31 50.0 °F 39.1 °F 30.00 in East 1.0 mph 2.0 mph 66% 0.00 in
00:36 50.0 °F 38.7 °F 30.00 in East 2.0 mph 2.0 mph 65% 0.00 in
00:41 50.1 °F 38.8 °F 30.00 in East 2.0 mph 2.0 mph 65% 0.00 in
00:46 50.1 °F 38.4 °F 30.00 in East 2.0 mph 3.0 mph 64% 0.00 in
00:51 50.1 °F 39.2 °F 30.00 in ENE 1.0 mph 1.0 mph 66% 0.00 in
00:56 49.8 °F 39.7 °F 30.00 in ENE 1.0 mph 2.0 mph 68% 0.00 in
01:01 49.3 °F 39.9 °F 30.00 in ENE 1.0 mph 2.0 mph 70% 0.00 in
01:06 49.2 °F 39.1 °F 30.00 in ENE 1.0 mph 1.0 mph 68% 0.00 in
01:11 49.5 °F 38.6 °F 30.00 in ENE 2.0 mph 2.0 mph 66% 0.00 in
01:16 49.6 °F 38.7 °F 30.00 in East 1.0 mph 2.0 mph 66% 0.00 in
01:21 49.7 °F 38.8 °F 30.00 in East 1.0 mph 2.0 mph 66% 0.00 in
01:26 49.6 °F 39.5 °F 30.00 in Calm   1.0 mph 68% 0.00 in
01:31 49.4 °F 38.9 °F 30.00 in East 1.0 mph 2.0 mph 67% 0.00 in
01:36 49.6 °F 38.3 °F 30.00 in East 2.0 mph 2.0 mph 65% 0.00 in
01:41 49.9 °F 38.2 °F 30.00 in East 1.0 mph 3.0 mph 64% 0.00 in
01:46 50.0 °F 38.7 °F 30.00 in ENE 2.0 mph 2.0 mph 65% 0.00 in
01:51 50.0 °F 38.7 °F 30.00 in East 2.0 mph 2.0 mph 65% 0.00 in
01:56 49.9 °F 39.0 °F 30.00 in East 1.0 mph 2.0 mph 66% 0.00 in
02:01 49.9 °F 38.6 °F 30.00 in NE 1.0 mph 3.0 mph 65% 0.00 in
02:06 49.9 °F 39.0 °F 30.00 in East 2.0 mph 2.0 mph 66% 0.00 in
02:11 49.7 °F 39.2 °F 30.01 in NE 1.0 mph 2.0 mph 67% 0.00 in
02:16 49.3 °F 40.7 °F 30.01 in Calm     72% 0.00 in
02:21 48.8 °F 40.9 °F 30.01 in Calm     74% 0.00 in
02:26 48.3 °F 41.4 °F 30.01 in East 1.0 mph 1.0 mph 77% 0.00 in
02:31 47.8 °F 41.0 °F 30.01 in East 1.0 mph 1.0 mph 77% 0.00 in
02:36 47.5 °F 41.0 °F 30.01 in East 2.0 mph 3.0 mph 78% 0.00 in
02:41 47.5 °F 41.0 °F 30.01 in ENE 1.0 mph 3.0 mph 78% 0.00 in
02:46 47.4 °F 41.2 °F 30.00 in ENE 3.0 mph 3.0 mph 79% 0.00 in
02:51 47.4 °F 41.2 °F 30.00 in East 2.0 mph 3.0 mph 79% 0.00 in
02:56 47.4 °F 41.2 °F 30.00 in ENE 2.0 mph 4.0 mph 79% 0.00 in
03:01 47.4 °F 41.2 °F 30.00 in ENE 2.0 mph 4.0 mph 79% 0.00 in
03:06 47.2 °F 41.4 °F 30.00 in East 2.0 mph 3.0 mph 80% 0.00 in
03:11 47.1 °F 41.3 °F 30.00 in East 2.0 mph 3.0 mph 80% 0.00 in
03:16 47.1 °F 41.6 °F 30.00 in Calm   2.0 mph 81% 0.00 in
03:21 46.9 °F 41.4 °F 30.00 in East 1.0 mph 1.0 mph 81% 0.00 in
03:26 46.8 °F 41.9 °F 30.00 in East 1.0 mph 1.0 mph 83% 0.00 in
03:31 46.7 °F 41.8 °F 30.00 in East 1.0 mph 2.0 mph 83% 0.00 in
03:36 46.6 °F 42.6 °F 30.00 in Calm   1.0 mph 86% 0.00 in
03:41 46.3 °F 43.0 °F 30.00 in NE 2.0 mph 2.0 mph 88% 0.00 in
03:46 46.0 °F 42.3 °F 30.00 in NNE 2.0 mph 3.0 mph 87% 0.00 in
03:51 46.0 °F 42.7 °F 29.99 in NE 3.0 mph 3.0 mph 88% 0.00 in
03:57 45.9 °F 42.8 °F 29.99 in NNE 2.0 mph 4.0 mph 89% 0.00 in
04:02 45.9 °F 43.1 °F 29.99 in NNE 2.0 mph 3.0 mph 90% 0.00 in
04:07 45.8 °F 42.8 °F 29.99 in NE 1.0 mph 3.0 mph 89% 0.00 in
04:12 45.8 °F 42.8 °F 29.99 in NE 2.0 mph 3.0 mph 89% 0.00 in
04:17 45.9 °F 42.8 °F 29.99 in NE 2.0 mph 4.0 mph 89% 0.00 in
04:22 46.0 °F 42.7 °F 29.98 in ENE 2.0 mph 3.0 mph 88% 0.00 in
04:27 46.1 °F 42.8 °F 29.98 in East 2.0 mph 4.0 mph 88% 0.00 in
04:32 46.3 °F 43.0 °F 29.98 in NE 3.0 mph 4.0 mph 88% 0.00 in
04:37 46.5 °F 42.8 °F 29.98 in Calm   2.0 mph 87% 0.00 in
04:42 46.5 °F 43.1 °F 29.98 in Calm   1.0 mph 88% 0.00 in
04:47 46.7 °F 43.0 °F 29.98 in NE 1.0 mph 3.0 mph 87% 0.00 in
04:52 47.1 °F 43.1 °F 29.97 in East 2.0 mph 3.0 mph 86% 0.00 in
04:57 47.2 °F 43.2 °F 29.97 in ENE 2.0 mph 3.0 mph 86% 0.00 in
05:02 47.1 °F 43.4 °F 29.97 in East 1.0 mph 2.0 mph 87% 0.00 in
05:07 47.1 °F 43.4 °F 29.97 in Calm   2.0 mph 87% 0.00 in
05:12 47.1 °F 43.4 °F 29.97 in East 2.0 mph 2.0 mph 87% 0.00 in
05:17 47.3 °F 43.3 °F 29.97 in East 1.0 mph 3.0 mph 86% 0.00 in
05:22 47.5 °F 43.2 °F 29.97 in East 1.0 mph 2.0 mph 85% 0.00 in
05:27 47.6 °F 43.3 °F 29.97 in ENE 1.0 mph 2.0 mph 85% 0.00 in
05:32 47.6 °F 43.9 °F 29.97 in NE 1.0 mph 2.0 mph 87% 0.00 in
05:37 47.3 °F 43.9 °F 29.97 in Calm   2.0 mph 88% 0.00 in
05:42 47.3 °F 43.6 °F 29.97 in ENE 2.0 mph 2.0 mph 87% 0.00 in
05:47 47.5 °F 43.2 °F 29.97 in East 3.0 mph 3.0 mph 85% 0.00 in
05:52 47.7 °F 43.1 °F 29.97 in East 3.0 mph 4.0 mph 84% 0.00 in
05:57 47.8 °F 43.2 °F 29.97 in NE 4.0 mph 4.0 mph 84% 0.00 in
06:02 47.8 °F 43.2 °F 29.97 in East 2.0 mph 2.0 mph 84% 0.00 in
06:07 47.8 °F 43.2 °F 29.97 in East 3.0 mph 4.0 mph 84% 0.00 in
06:13 47.9 °F 43.0 °F 29.97 in ESE 3.0 mph 4.0 mph 83% 0.00 in
06:18 47.8 °F 42.9 °F 29.97 in ESE 2.0 mph 4.0 mph 83% 0.00 in
06:23 47.7 °F 42.8 °F 29.97 in East 4.0 mph 4.0 mph 83% 0.00 in
06:28 47.6 °F 43.0 °F 29.98 in East 1.0 mph 4.0 mph 84% 0.00 in
06:33 47.7 °F 42.8 °F 29.98 in East 2.0 mph 3.0 mph 83% 0.00 in
06:38 47.8 °F 42.6 °F 29.98 in East 2.0 mph 3.0 mph 82% 0.00 in
06:43 48.0 °F 42.5 °F 29.97 in East 2.0 mph 4.0 mph 81% 0.00 in
06:48 48.1 °F 42.5 °F 29.97 in ESE 3.0 mph 4.0 mph 81% 0.00 in
06:53 48.0 °F 42.8 °F 29.98 in ESE 2.0 mph 3.0 mph 82% 0.00 in
06:58 48.0 °F 42.8 °F 29.98 in East 1.0 mph 4.0 mph 82% 0.00 in
07:03 48.1 °F 42.5 °F 29.98 in SE 3.0 mph 3.0 mph 81% 0.00 in
07:08 48.0 °F 42.8 °F 29.98 in SE 2.0 mph 3.0 mph 82% 0.00 in
07:13 48.0 °F 42.8 °F 29.98 in East 4.0 mph 4.0 mph 82% 0.00 in
07:18 47.9 °F 42.7 °F 29.98 in ESE 6.0 mph 6.0 mph 82% 0.00 in
07:24 47.9 °F 42.7 °F 29.98 in East 2.0 mph 4.0 mph 82% 0.00 in
07:29 48.0 °F 42.8 °F 29.98 in East 3.0 mph 4.0 mph 82% 0.00 in
07:34 48.1 °F 42.5 °F 29.98 in East 2.0 mph 4.0 mph 81% 0.00 in
07:39 48.1 °F 42.5 °F 29.98 in ESE 4.0 mph 4.0 mph 81% 0.00 in
07:44 48.2 °F 43.0 °F 29.99 in ESE 2.0 mph 5.0 mph 82% 0.00 in
07:49 48.1 °F 42.9 °F 29.99 in ESE 3.0 mph 4.0 mph 82% 0.00 in
07:54 48.1 °F 42.5 °F 29.99 in ESE 3.0 mph 4.0 mph 81% 0.00 in
07:59 48.1 °F 42.9 °F 29.98 in ESE 1.0 mph 2.0 mph 82% 0.00 in
08:04 48.1 °F 43.2 °F 29.98 in ENE 3.0 mph 3.0 mph 83% 0.00 in
08:09 48.2 °F 43.0 °F 29.99 in ESE 3.0 mph 4.0 mph 82% 0.00 in
08:14 48.3 °F 43.1 °F 29.98 in East 4.0 mph 4.0 mph 82% 0.00 in
08:19 48.4 °F 43.2 °F 29.98 in East 2.0 mph 4.0 mph 82% 0.00 in
08:24 48.4 °F 43.2 °F 29.98 in East 4.0 mph 5.0 mph 82% 0.00 in
08:29 48.4 °F 43.2 °F 29.98 in East 2.0 mph 3.0 mph 82% 0.00 in
08:34 48.6 °F 43.4 °F 29.98 in East 2.0 mph 4.0 mph 82% 0.00 in
08:39 48.7 °F 43.5 °F 29.99 in ENE 4.0 mph 4.0 mph 82% 0.00 in
08:44 48.8 °F 43.6 °F 29.99 in ESE 2.0 mph 5.0 mph 82% 0.00 in
08:49 48.9 °F 43.7 °F 29.98 in ENE 2.0 mph 4.0 mph 82% 0.00 in
08:54 49.0 °F 44.1 °F 29.98 in ESE 3.0 mph 4.0 mph 83% 0.00 in
08:59 49.0 °F 44.1 °F 29.98 in ESE 4.0 mph 5.0 mph 83% 0.00 in
09:04 49.0 °F 44.7 °F 29.98 in ESE 6.0 mph 6.0 mph 85% 0.00 in
09:09 49.2 °F 44.9 °F 29.98 in ESE 3.0 mph 5.0 mph 85% 0.00 in
09:14 49.5 °F 45.2 °F 29.98 in SE 3.0 mph 5.0 mph 85% 0.00 in
09:19 49.7 °F 45.1 °F 29.98 in ESE 5.0 mph 6.0 mph 84% 0.00 in
09:24 49.9 °F 45.3 °F 29.98 in ESE 5.0 mph 5.0 mph 84% 0.00 in
09:29 50.1 °F 45.8 °F 29.98 in ESE 2.0 mph 5.0 mph 85% 0.00 in
09:35 50.3 °F 46.0 °F 29.98 in East 4.0 mph 5.0 mph 85% 0.00 in
09:40 50.4 °F 45.8 °F 29.97 in ESE 5.0 mph 6.0 mph 84% 0.00 in
09:45 50.5 °F 46.2 °F 29.97 in ENE 5.0 mph 7.0 mph 85% 0.00 in
09:50 50.6 °F 46.3 °F 29.97 in East 4.0 mph 8.0 mph 85% 0.00 in
09:55 50.9 °F 46.6 °F 29.98 in East 4.0 mph 7.0 mph 85% 0.00 in
10:00 51.1 °F 46.8 °F 29.98 in SE 5.0 mph 7.0 mph 85% 0.00 in
10:05 51.2 °F 46.8 °F 29.99 in ESE 5.0 mph 7.0 mph 85% 0.00 in
10:10 51.2 °F 47.2 °F 29.99 in ESE 4.0 mph 6.0 mph 86% 0.00 in
10:15 51.2 °F 47.5 °F 29.99 in SE 4.0 mph 5.0 mph 87% 0.00 in
10:20 51.3 °F 47.9 °F 29.99 in ESE 5.0 mph 5.0 mph 88% 0.00 in
10:25 51.3 °F 47.6 °F 29.98 in ESE 4.0 mph 6.0 mph 87% 0.00 in
10:30 51.5 °F 48.1 °F 29.98 in East 5.0 mph 7.0 mph 88% 0.00 in
10:35 51.8 °F 48.4 °F 29.98 in ESE 5.0 mph 8.0 mph 88% 0.00 in
10:40 51.9 °F 48.5 °F 29.98 in East 6.0 mph 7.0 mph 88% 0.00 in
10:45 51.9 °F 48.2 °F 29.97 in ESE 6.0 mph 7.0 mph 87% 0.00 in
10:50 51.9 °F 48.5 °F 29.97 in ESE 3.0 mph 8.0 mph 88% 0.00 in
10:55 52.1 °F 48.7 °F 29.97 in ESE 5.0 mph 7.0 mph 88% 0.00 in
11:00 52.2 °F 48.8 °F 29.97 in ESE 6.0 mph 7.0 mph 88% 0.00 in
11:06 52.5 °F 48.8 °F 29.97 in ESE 7.0 mph 9.0 mph 87% 0.00 in
11:11 52.7 °F 49.2 °F 29.97 in SE 4.0 mph 8.0 mph 88% 0.00 in
11:16 53.0 °F 49.8 °F 29.97 in SE 5.0 mph 6.0 mph 89% 0.00 in
11:21 53.0 °F 49.8 °F 29.97 in SE 5.0 mph 7.0 mph 89% 0.00 in
11:26 53.1 °F 50.0 °F 29.97 in SE 6.0 mph 7.0 mph 89% 0.00 in
11:31 53.3 °F 50.2 °F 29.97 in SE 4.0 mph 6.0 mph 89% 0.00 in
11:36 53.4 °F 50.5 °F 29.97 in SSE 3.0 mph 5.0 mph 90% 0.00 in
11:41 53.5 °F 50.6 °F 29.97 in SE 4.0 mph 8.0 mph 90% 0.00 in
11:46 53.7 °F 51.1 °F 29.96 in SSE 4.0 mph 5.0 mph 91% 0.00 in
11:51 53.9 °F 51.3 °F 29.96 in SSE 4.0 mph 6.0 mph 91% 0.00 in
11:56 54.3 °F 51.4 °F 29.95 in ESE 3.0 mph 6.0 mph 90% 0.00 in
12:01 54.6 °F 51.7 °F 29.95 in SE 4.0 mph 6.0 mph 90% 0.00 in
12:06 54.9 °F 52.0 °F 29.95 in SSE 3.0 mph 6.0 mph 90% 0.00 in
12:11 55.1 °F 52.2 °F 29.95 in SE 2.0 mph 5.0 mph 90% 0.00 in
12:16 55.4 °F 52.5 °F 29.94 in SSE 5.0 mph 6.0 mph 90% 0.00 in
12:21 55.5 °F 52.6 °F 29.94 in SE 5.0 mph 9.0 mph 90% 0.00 in
12:26 55.6 °F 52.7 °F 29.94 in SE 4.0 mph 7.0 mph 90% 0.00 in
12:31 55.8 °F 52.9 °F 29.93 in SSE 4.0 mph 5.0 mph 90% 0.00 in
12:36 55.9 °F 53.0 °F 29.93 in SSE 4.0 mph 6.0 mph 90% 0.00 in
12:41 56.0 °F 53.1 °F 29.92 in SSE 5.0 mph 6.0 mph 90% 0.00 in
12:46 56.2 °F 53.3 °F 29.92 in SE 5.0 mph 6.0 mph 90% 0.00 in
12:51 56.3 °F 53.7 °F 29.91 in SSE 3.0 mph 5.0 mph 91% 0.00 in
12:56 56.5 °F 53.9 °F 29.91 in South 3.0 mph 5.0 mph 91% 0.00 in
13:01 56.6 °F 54.0 °F 29.91 in SE 4.0 mph 7.0 mph 91% 0.00 in
13:06 56.7 °F 54.1 °F 29.91 in South 3.0 mph 7.0 mph 91% 0.00 in
13:11 56.8 °F 54.2 °F 29.90 in SE 4.0 mph 6.0 mph 91% 0.00 in
13:16 57.0 °F 54.4 °F 29.90 in SE 3.0 mph 5.0 mph 91% 0.00 in
13:21 57.2 °F 54.6 °F 29.90 in SSW 6.0 mph 6.0 mph 91% 0.00 in
13:26 57.3 °F 54.7 °F 29.90 in SSE 8.0 mph 8.0 mph 91% 0.00 in
13:32 57.3 °F 54.7 °F 29.90 in SSE 5.0 mph 9.0 mph 91% 0.00 in
13:37 57.6 °F 55.0 °F 29.89 in SE 6.0 mph 11.0 mph 91% 0.00 in
13:42 58.0 °F 55.4 °F 29.89 in SE 6.0 mph 6.0 mph 91% 0.00 in
13:47 58.1 °F 55.2 °F 29.88 in SSE 5.0 mph 8.0 mph 90% 0.00 in
13:52 58.2 °F 55.3 °F 29.88 in SE 7.0 mph 8.0 mph 90% 0.00 in
13:57 58.2 °F 55.3 °F 29.88 in SE 8.0 mph 10.0 mph 90% 0.00 in
14:02 58.4 °F 55.5 °F 29.88 in SE 4.0 mph 9.0 mph 90% 0.00 in
14:07 58.4 °F 55.8 °F 29.88 in SE 8.0 mph 11.0 mph 91% 0.00 in
14:12 58.3 °F 55.7 °F 29.88 in SE 5.0 mph 8.0 mph 91% 0.00 in
14:17 58.2 °F 55.6 °F 29.88 in SE 5.0 mph 8.0 mph 91% 0.00 in
14:22 58.1 °F 55.5 °F 29.87 in SE 6.0 mph 9.0 mph 91% 0.00 in
14:27 58.1 °F 55.5 °F 29.88 in SSW 3.0 mph 8.0 mph 91% 0.00 in
14:32 58.1 °F 55.5 °F 29.88 in SE 6.0 mph 8.0 mph 91% 0.00 in
14:37 58.2 °F 55.6 °F 29.87 in SSE 5.0 mph 8.0 mph 91% 0.00 in
14:42 58.3 °F 55.7 °F 29.87 in SE 5.0 mph 8.0 mph 91% 0.00 in
14:47 58.4 °F 55.8 °F 29.87 in SSE 4.0 mph 9.0 mph 91% 0.00 in
14:52 58.4 °F 55.8 °F 29.87 in SE 5.0 mph 8.0 mph 91% 0.00 in
14:57 58.4 °F 55.8 °F 29.87 in SE 4.0 mph 7.0 mph 91% 0.00 in
15:02 58.3 °F 55.7 °F 29.87 in SE 8.0 mph 8.0 mph 91% 0.00 in
15:07 58.4 °F 55.8 °F 29.87 in SSE 4.0 mph 8.0 mph 91% 0.00 in
15:12 58.4 °F 55.8 °F 29.86 in SE 3.0 mph 8.0 mph 91% 0.00 in
15:17 58.4 °F 55.8 °F 29.87 in SSE 4.0 mph 5.0 mph 91% 0.00 in
15:22 58.4 °F 55.8 °F 29.86 in SE 5.0 mph 8.0 mph 91% 0.00 in
15:27 58.4 °F 55.8 °F 29.86 in SE 5.0 mph 8.0 mph 91% 0.00 in
15:32 58.5 °F 56.2 °F 29.86 in SE 6.0 mph 7.0 mph 92% 0.00 in
15:37 58.6 °F 56.3 °F 29.86 in SE 6.0 mph 8.0 mph 92% 0.00 in
15:42 58.6 °F 56.0 °F 29.86 in SSE 3.0 mph 6.0 mph 91% 0.00 in
15:47 58.6 °F 56.3 °F 29.86 in SE 4.0 mph 8.0 mph 92% 0.00 in
15:52 58.6 °F 56.3 °F 29.86 in SE 3.0 mph 7.0 mph 92% 0.00 in
15:57 58.7 °F 56.4 °F 29.86 in SSE 5.0 mph 10.0 mph 92% 0.00 in
16:02 58.7 °F 56.4 °F 29.86 in SE 4.0 mph 7.0 mph 92% 0.00 in
16:07 58.6 °F 56.3 °F 29.86 in South 4.0 mph 7.0 mph 92% 0.00 in
16:12 58.5 °F 56.2 °F 29.86 in SE 3.0 mph 6.0 mph 92% 0.00 in
16:18 58.5 °F 56.2 °F 29.86 in SE 5.0 mph 6.0 mph 92% 0.00 in
16:23 58.7 °F 56.4 °F 29.86 in SE 5.0 mph 6.0 mph 92% 0.00 in
16:28 58.8 °F 56.5 °F 29.86 in South 4.0 mph 7.0 mph 92% 0.00 in
16:33 58.8 °F 56.5 °F 29.86 in SSE 6.0 mph 6.0 mph 92% 0.00 in
16:38 59.0 °F 57.0 °F 29.86 in SSE 4.0 mph 6.0 mph 93% 0.00 in
16:43 59.1 °F 56.8 °F 29.86 in SE 4.0 mph 7.0 mph 92% 0.00 in
16:48 59.3 °F 57.0 °F 29.86 in SE 4.0 mph 8.0 mph 92% 0.00 in
16:53 59.3 °F 57.0 °F 29.86 in SE 5.0 mph 6.0 mph 92% 0.00 in
16:59 59.3 °F 57.0 °F 29.86 in SE 7.0 mph 9.0 mph 92% 0.00 in
17:04 59.4 °F 57.1 °F 29.86 in SSE 6.0 mph 8.0 mph 92% 0.00 in
17:09 59.5 °F 57.2 °F 29.86 in SSE 11.0 mph 11.0 mph 92% 0.00 in
17:14 59.6 °F 57.3 °F 29.85 in ESE 9.0 mph 11.0 mph 92% 0.00 in
17:19 59.6 °F 57.3 °F 29.85 in SE 8.0 mph 9.0 mph 92% 0.00 in
17:24 59.7 °F 57.4 °F 29.85 in SE 7.0 mph 9.0 mph 92% 0.00 in
17:29 59.6 °F 57.6 °F 29.85 in SE 6.0 mph 8.0 mph 93% 0.00 in
17:34 59.6 °F 57.6 °F 29.85 in SSE 5.0 mph 10.0 mph 93% 0.00 in
17:39 59.6 °F 57.6 °F 29.85 in SSE 6.0 mph 10.0 mph 93% 0.00 in
17:44 59.6 °F 57.6 °F 29.85 in SE 6.0 mph 8.0 mph 93% 0.00 in
17:49 59.6 °F 57.6 °F 29.85 in SE 3.0 mph 7.0 mph 93% 0.00 in
17:54 59.6 °F 57.6 °F 29.86 in SSE 6.0 mph 8.0 mph 93% 0.00 in
18:00 59.5 °F 57.5 °F 29.86 in SE 6.0 mph 10.0 mph 93% 0.00 in
18:05 59.5 °F 57.5 °F 29.85 in SSE 7.0 mph 8.0 mph 93% 0.00 in
18:10 59.5 °F 57.5 °F 29.85 in SSE 5.0 mph 7.0 mph 93% 0.00 in
18:15 59.6 °F 57.6 °F 29.86 in SE 7.0 mph 8.0 mph 93% 0.00 in
18:20 59.6 °F 57.6 °F 29.86 in SE 8.0 mph 12.0 mph 93% 0.00 in
18:25 59.6 °F 57.6 °F 29.85 in SE 8.0 mph 10.0 mph 93% 0.00 in
18:30 59.6 °F 57.6 °F 29.85 in SE 7.0 mph 9.0 mph 93% 0.00 in
18:35 59.6 °F 57.9 °F 29.85 in SE 6.0 mph 11.0 mph 94% 0.00 in
18:40 59.7 °F 58.0 °F 29.85 in SE 6.0 mph 12.0 mph 94% 0.00 in
18:45 59.7 °F 58.0 °F 29.85 in SSE 7.0 mph 9.0 mph 94% 0.00 in
18:50 59.7 °F 58.0 °F 29.85 in South 6.0 mph 9.0 mph 94% 0.00 in
18:55 59.7 °F 58.0 °F 29.85 in SE 7.0 mph 9.0 mph 94% 0.00 in
19:00 59.8 °F 58.1 °F 29.85 in SE 5.0 mph 10.0 mph 94% 0.00 in
19:05 59.7 °F 58.0 °F 29.85 in SE 4.0 mph 6.0 mph 94% 0.00 in
19:10 59.6 °F 57.9 °F 29.85 in SE 4.0 mph 8.0 mph 94% 0.00 in
19:15 59.5 °F 57.8 °F 29.85 in SSE 5.0 mph 9.0 mph 94% 0.00 in
19:20 59.4 °F 57.7 °F 29.85 in SSE 5.0 mph 7.0 mph 94% 0.00 in
19:25 59.3 °F 57.6 °F 29.85 in SE 5.0 mph 7.0 mph 94% 0.00 in
19:30 59.4 °F 57.7 °F 29.85 in SE 10.0 mph 11.0 mph 94% 0.00 in
19:35 59.5 °F 57.8 °F 29.84 in South 5.0 mph 11.0 mph 94% 0.00 in
19:40 59.5 °F 57.8 °F 29.84 in SE 6.0 mph 10.0 mph 94% 0.00 in
19:45 59.5 °F 57.8 °F 29.85 in SE 5.0 mph 10.0 mph 94% 0.00 in
19:50 59.6 °F 57.9 °F 29.85 in SSE 10.0 mph 10.0 mph 94% 0.00 in
19:55 59.6 °F 57.9 °F 29.84 in SE 6.0 mph 8.0 mph 94% 0.00 in
20:00 59.6 °F 57.9 °F 29.84 in ESE 9.0 mph 10.0 mph 94% 0.00 in
20:05 59.6 °F 57.9 °F 29.84 in SE 6.0 mph 13.0 mph 94% 0.00 in
20:10 59.7 °F 58.0 °F 29.84 in SSE 9.0 mph 11.0 mph 94% 0.00 in
20:15 59.6 °F 57.9 °F 29.84 in SE 6.0 mph 11.0 mph 94% 0.00 in
20:20 59.5 °F 57.8 °F 29.84 in SE 6.0 mph 10.0 mph 94% 0.00 in
20:25 59.4 °F 58.0 °F 29.84 in SSE 6.0 mph 9.0 mph 95% 0.00 in
20:30 59.3 °F 57.9 °F 29.85 in SE 8.0 mph 9.0 mph 95% 0.00 in
20:35 59.3 °F 57.9 °F 29.85 in SSE 9.0 mph 11.0 mph 95% 0.00 in
20:40 59.3 °F 57.9 °F 29.84 in SSE 10.0 mph 10.0 mph 95% 0.00 in
20:45 59.4 °F 58.0 °F 29.84 in SSE 9.0 mph 10.0 mph 95% 0.00 in
20:50 59.5 °F 58.1 °F 29.84 in SE 9.0 mph 10.0 mph 95% 0.00 in
20:56 59.5 °F 58.1 °F 29.84 in SE 10.0 mph 11.0 mph 95% 0.00 in
21:01 59.6 °F 58.2 °F 29.84 in SSE 9.0 mph 11.0 mph 95% 0.00 in
21:06 59.7 °F 58.3 °F 29.83 in SE 11.0 mph 11.0 mph 95% 0.00 in
21:11 59.9 °F 58.5 °F 29.83 in SE 8.0 mph 12.0 mph 95% 0.00 in
21:16 60.0 °F 58.6 °F 29.83 in SSE 8.0 mph 12.0 mph 95% 0.00 in
21:21 60.1 °F 58.7 °F 29.83 in SE 7.0 mph 13.0 mph 95% 0.00 in
21:26 60.2 °F 58.8 °F 29.83 in SSE 7.0 mph 10.0 mph 95% 0.00 in
21:31 60.3 °F 58.9 °F 29.83 in SE 10.0 mph 13.0 mph 95% 0.00 in
21:36 60.3 °F 58.9 °F 29.83 in SE 6.0 mph 11.0 mph 95% 0.00 in
21:41 60.4 °F 59.0 °F 29.83 in SE 7.0 mph 13.0 mph 95% 0.00 in
21:46 60.5 °F 59.1 °F 29.83 in SE 9.0 mph 13.0 mph 95% 0.00 in
21:51 60.6 °F 59.2 °F 29.83 in SE 11.0 mph 11.0 mph 95% 0.00 in
21:56 60.7 °F 59.3 °F 29.83 in SE 13.0 mph 14.0 mph 95% 0.00 in
22:01 60.9 °F 59.5 °F 29.82 in SE 8.0 mph 12.0 mph 95% 0.00 in
22:06 61.0 °F 59.6 °F 29.82 in SSE 8.0 mph 14.0 mph 95% 0.00 in
22:11 61.1 °F 59.7 °F 29.82 in SE 6.0 mph 12.0 mph 95% 0.00 in
22:16 61.1 °F 59.7 °F 29.82 in ESE 9.0 mph 13.0 mph 95% 0.00 in
22:21 61.3 °F 59.9 °F 29.82 in SE 10.0 mph 13.0 mph 95% 0.00 in
22:26 61.4 °F 60.0 °F 29.82 in South 7.0 mph 11.0 mph 95% 0.00 in
22:31 61.5 °F 60.1 °F 29.82 in SSE 7.0 mph 16.0 mph 95% 0.00 in
22:36 61.6 °F 60.2 °F 29.82 in SSE 8.0 mph 14.0 mph 95% 0.00 in
22:41 61.6 °F 60.2 °F 29.82 in SSW 10.0 mph 13.0 mph 95% 0.00 in
22:46 61.7 °F 60.3 °F 29.82 in SE 6.0 mph 12.0 mph 95% 0.00 in
22:51 61.7 °F 60.3 °F 29.82 in SSE 7.0 mph 11.0 mph 95% 0.00 in
22:56 61.8 °F 60.4 °F 29.82 in SSE 9.0 mph 14.0 mph 95% 0.00 in
23:01 61.8 °F 60.4 °F 29.82 in South 6.0 mph 10.0 mph 95% 0.00 in
23:06 61.9 °F 60.5 °F 29.82 in SSE 5.0 mph 8.0 mph 95% 0.00 in
23:11 61.9 °F 60.5 °F 29.83 in South 3.0 mph 10.0 mph 95% 0.00 in
23:16 61.9 °F 60.5 °F 29.82 in South 4.0 mph 9.0 mph 95% 0.00 in
23:21 62.0 °F 60.6 °F 29.82 in SSE 6.0 mph 9.0 mph 95% 0.00 in
23:27 62.0 °F 60.6 °F 29.82 in SW 7.0 mph 11.0 mph 95% 0.00 in
23:32 62.0 °F 60.6 °F 29.82 in SSE 4.0 mph 8.0 mph 95% 0.00 in
23:37 62.1 °F 60.7 °F 29.82 in SSW 6.0 mph 9.0 mph 95% 0.00 in
23:42 62.2 °F 60.8 °F 29.82 in South 3.0 mph 8.0 mph 95% 0.00 in
23:47 62.3 °F 60.8 °F 29.82 in SW 6.0 mph 9.0 mph 95% 0.00 in
23:52 62.3 °F 60.8 °F 29.83 in SSW 6.0 mph 9.0 mph 95% 0.00 in
23:57 62.4 °F 61.0 °F 29.82 in SSW 7.0 mph 11.0 mph 95% 0.00 in
Compliments of Weather Underground